Time;durP1;ratioP1;P1;durP2;ratioP2;P2;SDS_P1;SDS_P2;PMS_P1;PMS_P2;Temp;Humidity;BMP_temperature;BMP_pressure;BME280_temperature;BME280_humidity;BME280_pressure;Samples;Min_cycle;Max_cycle;Signal;HPM_P1;HPM_P2
2023/06/21 00:04:14;;;;;;;4.30;3.90;;;;;;;;;;10492178;28;20044;-66
2023/06/21 00:09:15;;;;;;;5.68;4.70;;;;;;;;;;10477066;28;20032;-67
2023/06/21 00:14:16;;;;;;;5.63;4.15;;;;;;;;;;10491866;28;20461;-66
2023/06/21 00:19:16;;;;;;;6.10;4.28;;;;;;;;;;10490456;28;20032;-63
2023/06/21 00:24:17;;;;;;;4.72;4.25;;;;;;;;;;10491291;28;20024;-65
2023/06/21 00:29:18;;;;;;;5.13;4.13;;;;;;;;;;10490172;28;20106;-65
2023/06/21 00:34:18;;;;;;;5.25;4.50;;;;;;;;;;10491399;28;20154;-65
2023/06/21 00:39:19;;;;;;;6.57;4.50;;;;;;;;;;10487719;28;20021;-65
2023/06/21 00:44:20;;;;;;;6.10;4.38;;;;;;;;;;10491195;28;20020;-65
2023/06/21 00:49:20;;;;;;;4.72;3.88;;;;;;;;;;10488760;28;20447;-65
2023/06/21 00:54:22;;;;;;;4.38;3.97;;;;;;;;;;10490487;28;20480;-65
2023/06/21 00:59:27;;;;;;;4.85;4.35;;;;;;;;;;10489718;28;20035;-65
2023/06/21 01:04:31;;;;;;;5.03;3.88;;;;;;;;;;10488346;28;20395;-66
2023/06/21 01:10:02;;;;;;;5.80;3.58;;;;;;;;;;10490046;28;20190;-66
2023/06/21 01:15:11;;;;;;;4.38;3.65;;;;;;;;;;10489921;28;20024;-67
2023/06/21 01:20:22;;;;;;;4.72;4.25;;;;;;;;;;10489039;28;20062;-66
2023/06/21 01:26:09;;;;;;;5.43;4.03;;;;;;;;;;10489085;28;20059;-63
2023/06/21 01:31:15;;;;;;;3.80;3.50;;;;;;;;;;10486640;28;20052;-63
2023/06/21 01:36:16;;;;;;;5.00;3.63;;;;;;;;;;10487740;28;20044;-63
2023/06/21 01:41:17;;;;;;;4.53;4.13;;;;;;;;;;10496077;28;20028;-63
2023/06/21 01:46:20;;;;;;;4.38;3.97;;;;;;;;;;10497386;28;20341;-63
2023/06/21 01:51:21;;;;;;;4.28;3.88;;;;;;;;;;10493033;28;20452;-63
2023/06/21 01:56:24;;;;;;;4.60;4.00;;;;;;;;;;10493543;28;20086;-64
2023/06/21 02:01:27;;;;;;;6.03;3.70;;;;;;;;;;10493996;28;20079;-63
2023/06/21 02:06:30;;;;;;;4.32;3.95;;;;;;;;;;10500102;28;20021;-63
2023/06/21 02:11:31;;;;;;;4.47;3.70;;;;;;;;;;10495116;28;20047;-63
2023/06/21 02:16:32;;;;;;;3.78;3.40;;;;;;;;;;10495690;28;20040;-63
2023/06/21 02:21:33;;;;;;;8.52;3.50;;;;;;;;;;10496395;28;20472;-63
2023/06/21 02:26:34;;;;;;;11.32;3.95;;;;;;;;;;10491449;28;20033;-63
2023/06/21 02:31:34;;;;;;;4.28;3.88;;;;;;;;;;10494728;28;20767;-63
2023/06/21 02:36:36;;;;;;;4.18;3.70;;;;;;;;;;10494380;28;20040;-63
2023/06/21 02:41:37;;;;;;;4.32;3.85;;;;;;;;;;10495661;28;20044;-63
2023/06/21 02:46:37;;;;;;;4.35;3.88;;;;;;;;;;10494420;28;20032;-63
2023/06/21 02:51:38;;;;;;;3.92;3.47;;;;;;;;;;10492521;28;20689;-63
2023/06/21 02:56:40;;;;;;;3.92;3.63;;;;;;;;;;10503110;28;20067;-64
2023/06/21 03:01:40;;;;;;;4.13;3.72;;;;;;;;;;10495688;28;20063;-63
2023/06/21 03:06:41;;;;;;;4.00;3.42;;;;;;;;;;10493661;28;20036;-63
2023/06/21 03:11:42;;;;;;;5.25;3.58;;;;;;;;;;10491449;28;20418;-65
2023/06/21 03:16:44;;;;;;;4.72;3.17;;;;;;;;;;10492300;28;20090;-65
2023/06/21 03:21:45;;;;;;;3.35;3.05;;;;;;;;;;10483235;28;20117;-64
2023/06/21 03:26:46;;;;;;;3.85;3.55;;;;;;;;;;10493755;28;20484;-65
2023/06/21 03:31:47;;;;;;;4.78;3.63;;;;;;;;;;10489523;28;20102;-64
2023/06/21 03:36:47;;;;;;;7.30;3.20;;;;;;;;;;10492848;28;20028;-63
2023/06/21 03:41:48;;;;;;;3.78;3.05;;;;;;;;;;10491536;28;20036;-64
2023/06/21 03:46:48;;;;;;;4.30;3.53;;;;;;;;;;10492457;28;20075;-64
2023/06/21 03:51:49;;;;;;;5.05;3.40;;;;;;;;;;10490208;28;20039;-65
2023/06/21 03:56:50;;;;;;;3.40;3.10;;;;;;;;;;10492775;28;20043;-65
2023/06/21 04:01:50;;;;;;;5.35;3.25;;;;;;;;;;10489102;28;20036;-64
2023/06/21 04:06:51;;;;;;;7.40;3.45;;;;;;;;;;10492118;28;20024;-65
2023/06/21 04:11:52;;;;;;;10.73;3.70;;;;;;;;;;10489980;28;20032;-65
2023/06/21 04:16:53;;;;;;;4.28;3.55;;;;;;;;;;10490568;28;20479;-65
2023/06/21 04:21:54;;;;;;;4.97;3.40;;;;;;;;;;10490097;28;20107;-64
2023/06/21 04:26:57;;;;;;;4.13;3.20;;;;;;;;;;10491643;28;20071;-64
2023/06/21 04:31:58;;;;;;;3.30;3.00;;;;;;;;;;10490184;28;20056;-64
2023/06/21 04:37:05;;;;;;;3.30;3.00;;;;;;;;;;10490179;28;20029;-65
2023/06/21 04:42:07;;;;;;;4.25;3.30;;;;;;;;;;10489562;28;20143;-64
2023/06/21 04:47:07;;;;;;;4.32;3.13;;;;;;;;;;10489992;28;20033;-64
2023/06/21 04:52:09;;;;;;;5.40;3.00;;;;;;;;;;10489707;28;20472;-64
2023/06/21 04:57:12;;;;;;;3.75;3.33;;;;;;;;;;10491404;28;20544;-64
2023/06/21 05:02:13;;;;;;;3.33;3.03;;;;;;;;;;10493961;28;20032;-63
2023/06/21 05:07:13;;;;;;;3.70;3.28;;;;;;;;;;10497133;28;20028;-63
2023/06/21 05:12:14;;;;;;;3.33;3.03;;;;;;;;;;10497517;28;20090;-65
2023/06/21 05:17:15;;;;;;;3.65;3.35;;;;;;;;;;10499749;28;20032;-64
2023/06/21 05:22:16;;;;;;;3.28;2.97;;;;;;;;;;10496309;28;20029;-65
2023/06/21 05:27:17;;;;;;;5.40;2.83;;;;;;;;;;10497092;28;20028;-65
2023/06/21 05:32:17;;;;;;;6.55;3.00;;;;;;;;;;10495601;28;20044;-64
2023/06/21 05:37:18;;;;;;;3.80;3.40;;;;;;;;;;10497875;28;20039;-65
2023/06/21 05:42:18;;;;;;;4.78;3.17;;;;;;;;;;10493506;28;20032;-65
2023/06/21 05:47:19;;;;;;;3.88;3.15;;;;;;;;;;10495695;28;20442;-65
2023/06/21 05:52:19;;;;;;;5.40;3.35;;;;;;;;;;10495610;28;20020;-66
2023/06/21 05:57:21;;;;;;;3.78;3.20;;;;;;;;;;10493133;28;20048;-64
2023/06/21 06:02:23;;;;;;;4.00;3.30;;;;;;;;;;10488662;28;20032;-62
2023/06/21 06:07:23;;;;;;;13.98;7.50;;;;;;;;;;10488097;28;20032;-62
2023/06/21 06:12:24;;;;;;;27.65;10.43;;;;;;;;;;10482753;28;20029;-62
2023/06/21 06:17:25;;;;;;;27.10;10.57;;;;;;;;;;10489624;28;20029;-61
2023/06/21 06:22:25;;;;;;;23.65;10.77;;;;;;;;;;10492990;28;20384;-61
2023/06/21 06:27:26;;;;;;;42.08;10.50;;;;;;;;;;10487186;28;20063;-63
2023/06/21 06:32:27;;;;;;;19.13;10.27;;;;;;;;;;10492347;28;20045;-62
2023/06/21 06:37:27;;;;;;;14.73;10.98;;;;;;;;;;10491557;28;20460;-63
2023/06/21 06:42:28;;;;;;;14.63;10.02;;;;;;;;;;10481856;28;20024;-63
2023/06/21 06:47:29;;;;;;;16.95;10.98;;;;;;;;;;10494021;28;20035;-62
2023/06/21 06:52:30;;;;;;;17.23;10.07;;;;;;;;;;10492079;28;20028;-63
2023/06/21 06:57:31;;;;;;;20.20;11.50;;;;;;;;;;10472221;28;20032;-63
2023/06/21 07:02:31;;;;;;;14.52;9.90;;;;;;;;;;10495012;28;20028;-63
2023/06/21 07:07:32;;;;;;;13.27;9.60;;;;;;;;;;10482829;28;20028;-62
2023/06/21 07:12:32;;;;;;;17.83;10.05;;;;;;;;;;10494837;28;20085;-62
2023/06/21 07:17:33;;;;;;;12.13;9.80;;;;;;;;;;10471207;28;20247;-62
2023/06/21 07:22:34;;;;;;;14.35;9.75;;;;;;;;;;10455700;28;20033;-62
2023/06/21 07:27:35;;;;;;;11.38;9.40;;;;;;;;;;10488845;28;20017;-62
2023/06/21 07:32:36;;;;;;;13.07;9.77;;;;;;;;;;10492510;28;20063;-62
2023/06/21 07:37:36;;;;;;;13.13;9.52;;;;;;;;;;10491889;28;20042;-62
2023/06/21 07:42:38;;;;;;;12.50;8.48;;;;;;;;;;10480688;28;20074;-62
2023/06/21 07:47:40;;;;;;;13.88;9.88;;;;;;;;;;10492028;28;20116;-63
2023/06/21 07:52:41;;;;;;;13.70;10.20;;;;;;;;;;10486080;28;20260;-63
2023/06/21 07:57:42;;;;;;;13.27;10.25;;;;;;;;;;10483049;28;20247;-63
2023/06/21 08:02:49;;;;;;;15.15;10.00;;;;;;;;;;10493206;28;20029;-63
2023/06/21 08:07:50;;;;;;;16.45;10.25;;;;;;;;;;10492000;28;20033;-63
2023/06/21 08:12:51;;;;;;;18.85;10.52;;;;;;;;;;10491699;28;20033;-63
2023/06/21 08:17:51;;;;;;;11.95;9.50;;;;;;;;;;10479561;28;20028;-63
2023/06/21 08:22:52;;;;;;;12.50;9.10;;;;;;;;;;10490522;28;20032;-62
2023/06/21 08:27:53;;;;;;;11.60;9.20;;;;;;;;;;10477378;28;20031;-62
2023/06/21 08:32:53;;;;;;;12.52;9.55;;;;;;;;;;10489687;28;20044;-62
2023/06/21 08:37:56;;;;;;;14.93;10.45;;;;;;;;;;10466449;28;20115;-62
2023/06/21 08:42:57;;;;;;;13.18;10.27;;;;;;;;;;10470240;28;20385;-62
2023/06/21 08:48:04;;;;;;;15.27;9.55;;;;;;;;;;10482555;28;20064;-63
2023/06/21 08:53:07;;;;;;;12.57;10.05;;;;;;;;;;10483650;28;20106;-62
2023/06/21 08:58:16;;;;;;;13.38;10.27;;;;;;;;;;10486135;28;20408;-62
2023/06/21 09:03:32;;;;;;;11.77;9.52;;;;;;;;;;10490279;28;20472;-62
2023/06/21 09:08:33;;;;;;;13.95;9.85;;;;;;;;;;10488588;28;20064;-63
2023/06/21 09:13:34;;;;;;;15.55;10.95;;;;;;;;;;10491648;28;20066;-63
2023/06/21 09:18:37;;;;;;;13.52;10.15;;;;;;;;;;10488479;28;20028;-63
2023/06/21 09:23:39;;;;;;;18.70;11.95;;;;;;;;;;10474630;28;20017;-63
2023/06/21 09:28:40;;;;;;;17.13;10.85;;;;;;;;;;10468706;28;20411;-62
2023/06/21 09:33:43;;;;;;;15.15;11.63;;;;;;;;;;10493131;28;20431;-62
2023/06/21 09:38:44;;;;;;;12.13;10.88;;;;;;;;;;10464384;28;20017;-62
2023/06/21 09:43:45;;;;;;;14.90;11.35;;;;;;;;;;10476702;28;20029;-63
2023/06/21 09:48:46;;;;;;;12.23;10.93;;;;;;;;;;10491847;28;20028;-63
2023/06/21 09:53:50;;;;;;;17.48;10.77;;;;;;;;;;10484765;28;20123;-63
2023/06/21 09:58:52;;;;;;;13.02;10.75;;;;;;;;;;10469691;28;20032;-63
2023/06/21 10:03:53;;;;;;;16.58;11.55;;;;;;;;;;10498818;28;20036;-62
2023/06/21 10:08:54;;;;;;;15.32;11.45;;;;;;;;;;10497527;28;20024;-63
2023/06/21 10:13:55;;;;;;;17.42;11.30;;;;;;;;;;10483042;28;20353;-63
2023/06/21 10:18:58;;;;;;;15.13;11.60;;;;;;;;;;10494146;28;20028;-63
2023/06/21 10:24:01;;;;;;;14.75;11.73;;;;;;;;;;10494884;28;20025;-63
2023/06/21 10:29:03;;;;;;;12.40;10.75;;;;;;;;;;10493792;28;20341;-63
2023/06/21 10:34:07;;;;;;;13.65;11.35;;;;;;;;;;10481182;28;20044;-63
2023/06/21 10:39:09;;;;;;;15.90;11.50;;;;;;;;;;10498826;28;20034;-62
2023/06/21 10:44:11;;;;;;;12.20;10.77;;;;;;;;;;10481072;28;20028;-63
2023/06/21 10:49:12;;;;;;;12.82;10.40;;;;;;;;;;10485523;28;20106;-61
2023/06/21 10:54:14;;;;;;;17.58;11.75;;;;;;;;;;10494696;28;20028;-62
2023/06/21 10:59:17;;;;;;;13.60;10.30;;;;;;;;;;10480560;28;20029;-61
2023/06/21 11:04:18;;;;;;;22.88;10.30;;;;;;;;;;10483522;28;20056;-62
2023/06/21 11:09:19;;;;;;;19.90;11.27;;;;;;;;;;10480454;28;20033;-62
2023/06/21 11:14:32;;;;;;;16.00;10.75;;;;;;;;;;10480998;28;20380;-61
2023/06/21 11:19:37;;;;;;;13.23;10.25;;;;;;;;;;10492552;28;20036;-62
2023/06/21 11:24:50;;;;;;;14.18;10.85;;;;;;;;;;10481773;28;20021;-61
2023/06/21 11:30:09;;;;;;;13.50;11.02;;;;;;;;;;10491985;28;20093;-62
2023/06/21 11:35:12;;;;;;;15.48;10.63;;;;;;;;;;10480867;28;20028;-61
2023/06/21 11:40:16;;;;;;;14.73;10.70;;;;;;;;;;10480441;28;20032;-61
2023/06/21 11:45:27;;;;;;;14.52;10.57;;;;;;;;;;10480194;28;20036;-61
2023/06/21 11:50:49;;;;;;;14.05;10.90;;;;;;;;;;10480838;28;20036;-61
2023/06/21 11:55:53;;;;;;;13.35;10.25;;;;;;;;;;10479290;28;20031;-61
2023/06/21 12:01:03;;;;;;;18.58;10.77;;;;;;;;;;10480626;28;20036;-61
2023/06/21 12:06:04;;;;;;;14.15;9.52;;;;;;;;;;10457844;28;20028;-61
2023/06/21 12:11:07;;;;;;;13.45;9.13;;;;;;;;;;10459356;28;20126;-61
2023/06/21 12:16:08;;;;;;;10.80;9.65;;;;;;;;;;10459561;28;20057;-61
2023/06/21 12:21:09;;;;;;;12.13;9.55;;;;;;;;;;10466981;28;20134;-62
2023/06/21 12:26:14;;;;;;;12.77;9.25;;;;;;;;;;10487601;28;20032;-61
2023/06/21 12:31:16;;;;;;;11.63;9.38;;;;;;;;;;10489604;28;20055;-61
2023/06/21 12:36:26;;;;;;;16.85;8.75;;;;;;;;;;10483956;28;20158;-62
2023/06/21 12:41:32;;;;;;;13.02;10.05;;;;;;;;;;10489798;28;20567;-62
2023/06/21 12:46:38;;;;;;;10.73;9.27;;;;;;;;;;10489898;28;20028;-62
2023/06/21 12:51:39;;;;;;;11.18;9.25;;;;;;;;;;10488305;28;20034;-61
2023/06/21 12:56:47;;;;;;;12.70;10.25;;;;;;;;;;10489619;28;20039;-61
2023/06/21 13:01:47;;;;;;;13.80;10.18;;;;;;;;;;10474944;28;20479;-62
2023/06/21 13:06:49;;;;;;;10.57;8.95;;;;;;;;;;10467326;28;20028;-62
2023/06/21 13:11:50;;;;;;;11.00;9.02;;;;;;;;;;10489326;28;20034;-61
2023/06/21 13:16:50;;;;;;;13.30;10.27;;;;;;;;;;10470928;28;20038;-62
2023/06/21 13:21:51;;;;;;;15.75;8.82;;;;;;;;;;10478783;28;20554;-62
2023/06/21 13:26:52;;;;;;;13.85;9.23;;;;;;;;;;10494627;28;20484;-62
2023/06/21 13:31:52;;;;;;;13.15;8.82;;;;;;;;;;10508801;22;20459;-60
2023/06/21 13:36:53;;;;;;;9.13;8.07;;;;;;;;;;10493535;28;20404;-59
2023/06/21 13:41:54;;;;;;;13.65;9.32;;;;;;;;;;10496010;28;20388;-59
2023/06/21 13:46:54;;;;;;;9.57;8.57;;;;;;;;;;10496081;28;20028;-61
2023/06/21 13:51:55;;;;;;;17.80;8.23;;;;;;;;;;10495749;28;20102;-59
2023/06/21 13:56:55;;;;;;;11.65;9.23;;;;;;;;;;10492139;28;20040;-59
2023/06/21 14:01:56;;;;;;;15.55;8.98;;;;;;;;;;10489919;28;20090;-58
2023/06/21 14:06:57;;;;;;;16.00;9.40;;;;;;;;;;10495182;28;20021;-58
2023/06/21 14:11:57;;;;;;;14.77;8.90;;;;;;;;;;10458895;28;20017;-59
2023/06/21 14:16:58;;;;;;;26.98;10.27;;;;;;;;;;10471518;28;20028;-59
2023/06/21 14:21:58;;;;;;;19.25;9.65;;;;;;;;;;10481190;28;20031;-58
2023/06/21 14:26:59;;;;;;;17.92;9.43;;;;;;;;;;10472951;28;20028;-58
2023/06/21 14:32:00;;;;;;;12.65;9.00;;;;;;;;;;10486266;28;20411;-61
2023/06/21 14:37:00;;;;;;;20.00;9.20;;;;;;;;;;10475550;28;20041;-64
2023/06/21 14:42:01;;;;;;;13.52;8.70;;;;;;;;;;10487226;28;20183;-58
2023/06/21 14:47:03;;;;;;;13.95;8.70;;;;;;;;;;10485726;28;20036;-65
2023/06/21 14:52:04;;;;;;;14.77;9.55;;;;;;;;;;10493807;28;20028;-65
2023/06/21 14:57:05;;;;;;;15.82;9.23;;;;;;;;;;10493068;28;20078;-60
2023/06/21 15:02:06;;;;;;;11.50;9.27;;;;;;;;;;10486975;28;20021;-66
2023/06/21 15:07:07;;;;;;;12.75;9.88;;;;;;;;;;10463599;28;20073;-66
2023/06/21 15:12:08;;;;;;;13.80;9.48;;;;;;;;;;10475461;28;20033;-65
2023/06/21 15:17:09;;;;;;;16.38;9.82;;;;;;;;;;10471653;28;20021;-66
2023/06/21 15:22:09;;;;;;;11.05;9.20;;;;;;;;;;10470280;28;20583;-66
2023/06/21 15:27:10;;;;;;;13.30;9.38;;;;;;;;;;10485629;28;20021;-66
2023/06/21 15:32:11;;;;;;;17.33;9.10;;;;;;;;;;10488951;28;20560;-66
2023/06/21 15:37:11;;;;;;;15.48;8.82;;;;;;;;;;10471514;28;20469;-67
2023/06/21 15:42:12;;;;;;;12.32;9.00;;;;;;;;;;10479309;28;20373;-63
2023/06/21 15:47:13;;;;;;;13.32;9.65;;;;;;;;;;10490345;28;20035;-66
2023/06/21 15:52:14;;;;;;;12.88;8.95;;;;;;;;;;10490480;28;20037;-66
2023/06/21 15:57:14;;;;;;;13.38;9.70;;;;;;;;;;10486059;28;20102;-58
2023/06/21 16:02:16;;;;;;;17.55;9.88;;;;;;;;;;10488271;28;20195;-59
2023/06/21 16:07:17;;;;;;;13.73;9.65;;;;;;;;;;10486930;28;20025;-58
2023/06/21 16:12:17;;;;;;;12.93;9.55;;;;;;;;;;10470596;28;20044;-60
2023/06/21 16:17:18;;;;;;;13.45;9.18;;;;;;;;;;10486814;28;20063;-66
2023/06/21 16:22:18;;;;;;;12.30;8.43;;;;;;;;;;10487929;28;20370;-59
2023/06/21 16:27:19;;;;;;;17.35;9.48;;;;;;;;;;10489908;28;20254;-66
2023/06/21 16:32:20;;;;;;;13.85;8.98;;;;;;;;;;10488570;28;20040;-67
2023/06/21 16:37:20;;;;;;;13.85;9.57;;;;;;;;;;10489325;28;20039;-60
2023/06/21 16:42:21;;;;;;;15.25;9.68;;;;;;;;;;10482400;28;20032;-58
2023/06/21 16:47:22;;;;;;;12.93;8.95;;;;;;;;;;10486413;28;20028;-62
2023/06/21 16:52:23;;;;;;;12.18;8.80;;;;;;;;;;10489697;28;20060;-60
2023/06/21 16:57:23;;;;;;;18.52;9.32;;;;;;;;;;10492981;28;20127;-60
2023/06/21 17:02:24;;;;;;;16.98;9.15;;;;;;;;;;10498316;28;20048;-58
2023/06/21 17:07:25;;;;;;;11.27;8.85;;;;;;;;;;10496432;28;20032;-63
2023/06/21 17:12:25;;;;;;;9.48;8.43;;;;;;;;;;10497574;28;20033;-64
2023/06/21 17:17:26;;;;;;;13.05;9.32;;;;;;;;;;10489373;28;20035;-63
2023/06/21 17:22:26;;;;;;;13.50;8.77;;;;;;;;;;10490166;28;20028;-60
2023/06/21 17:27:27;;;;;;;13.82;8.93;;;;;;;;;;10498196;28;20078;-61
2023/06/21 17:32:27;;;;;;;11.40;8.68;;;;;;;;;;10498230;28;20048;-65
2023/06/21 17:37:28;;;;;;;16.80;8.98;;;;;;;;;;10498657;28;20389;-62
2023/06/21 17:42:29;;;;;;;15.98;8.55;;;;;;;;;;10473596;28;20388;-63
2023/06/21 17:47:30;;;;;;;14.80;8.55;;;;;;;;;;10476881;28;20020;-61
2023/06/21 17:52:31;;;;;;;11.07;8.65;;;;;;;;;;10491100;28;20063;-59
2023/06/21 17:57:31;;;;;;;13.38;8.60;;;;;;;;;;10485044;28;20033;-59
2023/06/21 18:02:32;;;;;;;14.38;8.88;;;;;;;;;;10481528;28;20086;-62
2023/06/21 18:07:33;;;;;;;14.25;8.77;;;;;;;;;;10481316;28;20055;-63
2023/06/21 18:12:34;;;;;;;14.18;9.05;;;;;;;;;;10479737;28;20039;-58
2023/06/21 18:17:37;;;;;;;13.10;8.60;;;;;;;;;;10471499;28;20053;-64
2023/06/21 18:22:38;;;;;;;13.65;9.02;;;;;;;;;;10484978;28;20028;-65
2023/06/21 18:27:39;;;;;;;14.13;8.98;;;;;;;;;;10476419;28;20063;-67
2023/06/21 18:32:40;;;;;;;13.13;8.80;;;;;;;;;;10474954;28;20127;-63
2023/06/21 18:37:40;;;;;;;12.15;8.68;;;;;;;;;;10487433;28;20094;-68
2023/06/21 18:42:41;;;;;;;13.13;9.00;;;;;;;;;;10494270;28;20380;-67
2023/06/21 18:47:42;;;;;;;11.45;9.02;;;;;;;;;;10492814;28;20035;-68
2023/06/21 18:52:42;;;;;;;12.80;9.25;;;;;;;;;;10496107;28;20040;-68
2023/06/21 18:57:43;;;;;;;12.32;8.82;;;;;;;;;;10487400;28;20040;-65
2023/06/21 19:02:43;;;;;;;14.48;9.02;;;;;;;;;;10470443;28;20021;-64
2023/06/21 19:07:44;;;;;;;13.15;8.30;;;;;;;;;;10481763;28;20107;-66
2023/06/21 19:12:45;;;;;;;12.52;7.78;;;;;;;;;;10481699;28;20031;-66
2023/06/21 19:17:46;;;;;;;21.15;9.00;;;;;;;;;;10488829;28;20469;-66
2023/06/21 19:22:48;;;;;;;12.85;8.52;;;;;;;;;;10486963;28;20124;-64
2023/06/21 19:27:49;;;;;;;19.48;8.00;;;;;;;;;;10488618;28;20036;-64
2023/06/21 19:32:49;;;;;;;14.23;8.23;;;;;;;;;;10491861;28;20109;-64
2023/06/21 19:37:50;;;;;;;12.07;8.45;;;;;;;;;;10492063;28;20032;-65
2023/06/21 19:42:51;;;;;;;15.82;7.65;;;;;;;;;;10491444;28;20024;-64
2023/06/21 19:47:51;;;;;;;13.07;7.85;;;;;;;;;;10491379;28;20105;-65
2023/06/21 19:52:52;;;;;;;9.75;7.35;;;;;;;;;;10490415;28;20024;-65
2023/06/21 19:57:53;;;;;;;10.48;7.30;;;;;;;;;;10490465;28;20029;-65
2023/06/21 20:02:54;;;;;;;12.55;8.57;;;;;;;;;;10493157;28;20028;-64
2023/06/21 20:07:54;;;;;;;10.75;8.27;;;;;;;;;;10484430;28;20032;-64
2023/06/21 20:12:55;;;;;;;8.65;7.43;;;;;;;;;;10477900;28;20042;-63
2023/06/21 20:17:56;;;;;;;8.48;7.00;;;;;;;;;;10478071;28;20025;-63
2023/06/21 20:22:56;;;;;;;13.35;7.35;;;;;;;;;;10489290;28;20094;-63
2023/06/21 20:27:57;;;;;;;14.80;8.13;;;;;;;;;;10495374;28;20032;-62
2023/06/21 20:32:58;;;;;;;10.50;7.28;;;;;;;;;;10484773;28;20144;-62
2023/06/21 20:37:58;;;;;;;18.05;7.60;;;;;;;;;;10480285;28;20028;-64
2023/06/21 20:43:00;;;;;;;14.45;7.57;;;;;;;;;;10468929;28;20050;-60
2023/06/21 20:48:01;;;;;;;10.40;7.72;;;;;;;;;;10459588;28;20032;-60
2023/06/21 20:53:02;;;;;;;14.90;7.18;;;;;;;;;;10459212;28;20485;-59
2023/06/21 20:58:03;;;;;;;9.90;7.28;;;;;;;;;;10456027;28;20385;-59
2023/06/21 21:03:04;;;;;;;10.20;7.30;;;;;;;;;;10483580;28;20258;-59
2023/06/21 21:08:05;;;;;;;10.93;7.60;;;;;;;;;;10486315;28;20029;-59
2023/06/21 21:13:07;;;;;;;10.70;7.47;;;;;;;;;;10489470;28;20020;-59
2023/06/21 21:18:07;;;;;;;10.68;6.97;;;;;;;;;;10484009;28;20545;-59
2023/06/21 21:23:09;;;;;;;11.43;7.70;;;;;;;;;;10465772;28;20075;-59
2023/06/21 21:28:09;;;;;;;10.30;7.57;;;;;;;;;;10476992;28;20086;-58
2023/06/21 21:33:10;;;;;;;10.13;7.03;;;;;;;;;;10485759;28;20087;-60
2023/06/21 21:38:11;;;;;;;8.50;6.95;;;;;;;;;;10488512;28;20024;-58
2023/06/21 21:43:11;;;;;;;11.73;7.32;;;;;;;;;;10480252;28;20034;-63
2023/06/21 21:48:12;;;;;;;10.95;7.57;;;;;;;;;;10495801;28;20027;-65
2023/06/21 21:53:13;;;;;;;9.63;7.95;;;;;;;;;;10498674;28;20111;-65
2023/06/21 21:58:14;;;;;;;17.00;7.63;;;;;;;;;;10497426;28;20112;-63
2023/06/21 22:03:15;;;;;;;12.73;7.43;;;;;;;;;;10496142;28;20039;-64
2023/06/21 22:08:19;;;;;;;14.93;8.10;;;;;;;;;;10490893;28;20032;-59
2023/06/21 22:13:19;;;;;;;12.82;7.72;;;;;;;;;;10494418;28;20024;-60
2023/06/21 22:18:27;;;;;;;8.32;7.38;;;;;;;;;;10496737;28;20412;-60
2023/06/21 22:23:29;;;;;;;9.50;7.90;;;;;;;;;;10494531;28;20028;-60
2023/06/21 22:28:31;;;;;;;13.32;8.40;;;;;;;;;;10495950;28;20104;-59
2023/06/21 22:33:32;;;;;;;11.15;7.57;;;;;;;;;;10495802;28;20041;-61
2023/06/21 22:38:35;;;;;;;12.20;8.52;;;;;;;;;;10494866;28;20444;-60
2023/06/21 22:43:35;;;;;;;10.93;8.20;;;;;;;;;;10495978;28;20078;-61
2023/06/21 22:48:36;;;;;;;8.88;7.75;;;;;;;;;;10495162;28;20361;-60
2023/06/21 22:53:36;;;;;;;8.95;7.85;;;;;;;;;;10497461;28;20052;-60
2023/06/21 22:58:37;;;;;;;10.15;8.00;;;;;;;;;;10493794;28;20024;-60
2023/06/21 23:03:38;;;;;;;10.23;7.65;;;;;;;;;;10495158;28;20028;-64
2023/06/21 23:08:43;;;;;;;12.98;8.32;;;;;;;;;;10494166;28;20036;-61
2023/06/21 23:13:44;;;;;;;10.82;7.70;;;;;;;;;;10494181;28;20032;-60
2023/06/21 23:18:45;;;;;;;12.65;8.13;;;;;;;;;;10493918;28;20375;-60
2023/06/21 23:23:45;;;;;;;8.10;7.25;;;;;;;;;;10492741;28;20399;-60
2023/06/21 23:28:48;;;;;;;10.52;7.10;;;;;;;;;;10493635;28;20021;-60
2023/06/21 23:33:49;;;;;;;12.55;7.68;;;;;;;;;;10493852;28;20070;-62
2023/06/21 23:38:58;;;;;;;9.80;7.25;;;;;;;;;;10493183;28;20044;-61
2023/06/21 23:43:59;;;;;;;12.85;8.27;;;;;;;;;;10492659;28;20492;-61
2023/06/21 23:49:02;;;;;;;10.30;7.63;;;;;;;;;;10494256;28;20183;-58
2023/06/21 23:54:03;;;;;;;9.70;7.93;;;;;;;;;;10495938;28;20434;-59
2023/06/21 23:59:03;;;;;;;13.18;8.10;;;;;;;;;;10491573;28;20077;-60
